createdAt,value
2018-07-07T00:02:29.092Z,19.50
2018-07-07T00:07:22.323Z,19.50
2018-07-07T00:12:15.630Z,19.50
2018-07-07T00:17:08.949Z,19.30
2018-07-07T00:22:02.632Z,19.30
2018-07-07T00:26:55.896Z,19.30
2018-07-07T00:31:49.130Z,19.20
2018-07-07T00:36:43.851Z,19.10
2018-07-07T00:46:30.314Z,19.00
2018-07-07T00:51:23.543Z,19.00
2018-07-07T00:56:17.397Z,19.00
2018-07-07T01:01:10.687Z,19.00
2018-07-07T01:06:03.966Z,19.00
2018-07-07T01:15:50.819Z,19.00
2018-07-07T01:25:37.979Z,19.10
2018-07-07T01:35:24.609Z,19.20
2018-07-07T01:40:18.040Z,19.20
2018-07-07T01:45:11.412Z,19.30
2018-07-07T01:50:04.803Z,19.30
2018-07-07T01:54:58.094Z,19.30
2018-07-07T01:59:51.386Z,19.30
2018-07-07T02:04:44.707Z,19.20
2018-07-07T02:09:37.962Z,19.30
2018-07-07T02:14:31.204Z,19.30
2018-07-07T02:19:24.624Z,19.40
2018-07-07T02:34:05.177Z,19.20
2018-07-07T02:38:58.430Z,19.10
2018-07-07T02:43:51.759Z,19.10
2018-07-07T02:48:45.035Z,19.10
2018-07-07T02:53:38.328Z,19.00
2018-07-07T02:58:31.591Z,18.80
2018-07-07T03:03:24.941Z,18.70
2018-07-07T03:08:18.115Z,18.70
2018-07-07T03:13:11.493Z,18.70
2018-07-07T03:18:04.768Z,18.90
2018-07-07T03:22:58.032Z,18.90
2018-07-07T03:27:51.290Z,18.90
2018-07-07T03:42:30.840Z,18.70
2018-07-07T03:47:24.119Z,18.60
2018-07-07T03:52:17.364Z,18.60
2018-07-07T04:02:06.992Z,18.70
2018-07-07T04:07:00.232Z,18.80
2018-07-07T04:11:53.490Z,18.80
2018-07-07T04:21:40.027Z,18.90
2018-07-07T04:26:33.288Z,19.10
2018-07-07T04:31:26.572Z,19.40
2018-07-07T04:36:19.860Z,19.40
2018-07-07T04:41:13.135Z,19.50
2018-07-07T04:46:06.485Z,19.70
2018-07-07T04:50:59.724Z,19.70
2018-07-07T04:55:52.972Z,19.90
2018-07-07T05:00:46.377Z,20.00
2018-07-07T05:05:39.699Z,20.30
2018-07-07T05:10:33.044Z,21.50
2018-07-07T05:20:19.585Z,22.80
2018-07-07T05:30:06.061Z,23.50
2018-07-07T05:34:59.441Z,24.80
2018-07-07T05:39:52.696Z,24.30
2018-07-07T05:44:46.020Z,23.30
2018-07-07T05:49:39.322Z,23.40
2018-07-07T05:54:32.612Z,23.70
2018-07-07T05:59:26.009Z,23.70
2018-07-07T06:04:19.294Z,24.00
2018-07-07T06:09:12.756Z,24.50
2018-07-07T06:18:59.296Z,25.80
2018-07-07T06:28:45.771Z,28.60
2018-07-07T06:33:39.016Z,29.30
2018-07-07T06:53:11.853Z,29.00
2018-07-07T06:58:05.218Z,30.80
2018-07-07T07:02:58.536Z,32.50
2018-07-07T07:07:51.791Z,32.20
2018-07-07T07:12:45.084Z,32.90
2018-07-07T07:17:38.602Z,32.90
2018-07-07T07:22:31.915Z,33.20
2018-07-07T07:27:25.166Z,35.60
2018-07-07T07:32:18.412Z,35.70
2018-07-07T07:37:11.711Z,37.40
2018-07-07T07:42:05.041Z,37.80
2018-07-07T07:46:58.845Z,37.40
2018-07-07T07:51:52.089Z,37.10
2018-07-07T07:56:45.356Z,37.90
2018-07-07T08:01:38.592Z,38.70
2018-07-07T08:11:25.064Z,37.40
2018-07-07T08:16:18.486Z,37.70
2018-07-07T08:21:11.792Z,37.20
2018-07-07T08:30:58.782Z,38.50
2018-07-07T08:35:52.657Z,38.20
2018-07-07T08:40:46.455Z,38.70
2018-07-07T08:45:39.927Z,37.60
2018-07-07T08:50:33.162Z,38.20
2018-07-07T08:55:26.434Z,37.50
2018-07-07T09:00:19.680Z,36.30
2018-07-07T09:05:13.051Z,36.20
2018-07-07T09:10:06.406Z,36.40
2018-07-07T09:14:59.672Z,36.60
2018-07-07T09:19:52.889Z,36.90
2018-07-07T09:24:46.141Z,37.20
2018-07-07T09:29:39.402Z,36.40
2018-07-07T09:34:32.640Z,36.50
2018-07-07T09:39:25.948Z,36.70
2018-07-07T09:44:19.191Z,35.80
2018-07-07T09:49:12.466Z,35.90
2018-07-07T09:54:05.818Z,35.30
2018-07-07T09:58:59.076Z,35.60
2018-07-07T10:03:52.387Z,35.40
2018-07-07T10:08:45.656Z,35.60
2018-07-07T10:13:38.935Z,35.60
2018-07-07T10:18:32.313Z,35.20
2018-07-07T10:23:25.557Z,34.30
2018-07-07T10:28:18.860Z,33.20
2018-07-07T10:33:12.293Z,32.30
2018-07-07T10:38:05.609Z,31.20
2018-07-07T10:42:58.888Z,30.70
2018-07-07T10:47:52.149Z,30.30
2018-07-07T10:52:45.385Z,30.00
2018-07-07T10:57:38.672Z,29.50
2018-07-07T11:02:31.925Z,29.20
2018-07-07T11:07:25.211Z,28.90
2018-07-07T11:12:18.504Z,28.50
2018-07-07T11:17:11.778Z,28.20
2018-07-07T11:22:05.325Z,28.20
2018-07-07T11:26:58.593Z,27.70
2018-07-07T11:36:45.201Z,27.40
2018-07-07T11:41:38.368Z,27.10
2018-07-07T11:46:31.701Z,27.30
2018-07-07T11:51:25.040Z,27.30
2018-07-07T12:01:11.586Z,27.30
2018-07-07T12:06:05.051Z,27.60
2018-07-07T12:10:58.354Z,27.80
2018-07-07T12:15:51.618Z,27.80
2018-07-07T12:20:45.496Z,27.50
2018-07-07T12:25:39.391Z,27.40
2018-07-07T12:35:26.603Z,27.70
2018-07-07T12:40:19.991Z,27.80
2018-07-07T12:45:15.145Z,28.00
2018-07-07T12:55:01.657Z,28.20
2018-07-07T12:59:54.949Z,28.00
2018-07-07T13:04:48.242Z,27.80
2018-07-07T13:09:42.957Z,27.40
2018-07-07T13:19:29.445Z,27.50
2018-07-07T13:24:22.724Z,27.40
2018-07-07T13:29:15.959Z,27.30
2018-07-07T13:34:09.243Z,27.60
2018-07-07T13:39:02.710Z,27.80
2018-07-07T13:43:55.962Z,27.90
2018-07-07T13:48:49.223Z,27.90
2018-07-07T13:53:43.667Z,28.10
2018-07-07T13:58:37.584Z,28.20
2018-07-07T14:08:24.042Z,27.80
2018-07-07T14:18:10.534Z,27.80
2018-07-07T14:23:03.865Z,27.90
2018-07-07T14:27:57.116Z,28.00
2018-07-07T14:32:50.454Z,28.00
2018-07-07T14:42:50.773Z,28.10
2018-07-07T14:47:45.312Z,28.00
2018-07-07T14:52:38.601Z,27.80
2018-07-07T14:57:31.881Z,27.60
2018-07-07T15:02:25.160Z,27.50
2018-07-07T15:07:20.359Z,27.50
2018-07-07T15:12:15.129Z,27.60
2018-07-07T15:17:10.092Z,27.50
2018-07-07T15:22:03.835Z,27.50
2018-07-07T15:26:57.333Z,27.50
2018-07-07T15:31:50.562Z,27.30
2018-07-07T15:36:43.840Z,27.50
2018-07-07T15:41:37.122Z,27.80
2018-07-07T15:46:30.383Z,27.60
2018-07-07T15:51:23.674Z,27.40
2018-07-07T15:56:16.936Z,27.40
2018-07-07T16:01:10.295Z,27.40
2018-07-07T16:10:56.807Z,27.40
2018-07-07T16:15:50.049Z,27.30
2018-07-07T16:20:43.417Z,27.30
2018-07-07T16:25:37.498Z,27.60
2018-07-07T16:30:30.795Z,27.80
2018-07-07T16:35:24.052Z,27.80
2018-07-07T16:40:19.324Z,28.00
2018-07-07T16:45:12.680Z,28.10
2018-07-07T16:50:06.947Z,27.90
2018-07-07T16:55:00.312Z,27.50
2018-07-07T16:59:54.068Z,27.50
2018-07-07T17:04:47.416Z,27.60
2018-07-07T17:09:40.752Z,27.50
2018-07-07T17:14:34.365Z,27.40
2018-07-07T17:19:27.804Z,27.00
2018-07-07T17:24:21.585Z,26.70
2018-07-07T17:29:14.964Z,26.40
2018-07-07T17:34:08.293Z,26.30
2018-07-07T17:39:01.801Z,26.20
2018-07-07T17:43:55.716Z,26.20
2018-07-07T17:48:48.988Z,26.10
2018-07-07T17:53:42.662Z,26.20
2018-07-07T17:58:36.091Z,26.10
2018-07-07T18:03:30.011Z,26.10
2018-07-07T18:13:16.472Z,25.90
2018-07-07T18:18:09.710Z,25.70
2018-07-07T18:23:03.085Z,25.50
2018-07-07T18:27:56.343Z,25.30
2018-07-07T18:32:49.646Z,25.10
2018-07-07T18:42:36.177Z,24.80
2018-07-07T18:47:29.458Z,24.60
2018-07-07T18:52:22.721Z,24.50
2018-07-07T18:57:16.082Z,24.40
2018-07-07T19:07:03.092Z,24.10
2018-07-07T19:11:56.353Z,24.00
2018-07-07T19:16:49.666Z,23.90
2018-07-07T19:21:48.578Z,23.70
2018-07-07T19:26:47.522Z,23.60
2018-07-07T19:31:46.514Z,23.40
2018-07-07T19:36:45.398Z,23.30
2018-07-07T19:41:38.686Z,23.10
2018-07-07T19:46:32.022Z,23.00
2018-07-07T19:56:18.408Z,22.60
2018-07-07T20:01:11.646Z,22.50
2018-07-07T20:10:59.090Z,22.10
2018-07-07T20:16:16.062Z,22.00
2018-07-07T20:21:32.220Z,22.00
2018-07-07T20:26:25.526Z,21.80
2018-07-07T20:31:18.784Z,21.60
2018-07-07T20:36:12.056Z,21.60
2018-07-07T20:41:05.431Z,21.40
2018-07-07T20:45:58.741Z,21.30
2018-07-07T20:50:52.007Z,21.20
2018-07-07T21:05:31.640Z,20.80
2018-07-07T21:15:18.294Z,20.50
2018-07-07T21:20:11.632Z,20.50
2018-07-07T21:25:04.959Z,20.40
2018-07-07T21:29:58.198Z,20.20
2018-07-07T21:34:51.485Z,20.20
2018-07-07T21:44:37.970Z,20.10
2018-07-07T21:49:31.237Z,20.10
2018-07-07T21:54:24.549Z,19.90
2018-07-07T21:59:17.882Z,19.80
2018-07-07T22:04:16.636Z,19.70
2018-07-07T22:09:09.908Z,19.70
2018-07-07T22:14:03.216Z,19.70
2018-07-07T22:23:49.654Z,19.40
2018-07-07T22:28:42.955Z,19.40
2018-07-07T22:38:35.086Z,19.20
2018-07-07T22:43:28.914Z,19.10
2018-07-07T22:53:15.347Z,18.90
2018-07-07T22:58:08.640Z,18.90
2018-07-07T23:07:55.676Z,18.70
2018-07-07T23:12:48.948Z,18.60
2018-07-07T23:17:42.220Z,18.50
2018-07-07T23:22:49.163Z,18.40
2018-07-07T23:27:42.467Z,18.30
2018-07-07T23:32:37.664Z,18.20
2018-07-07T23:37:30.976Z,18.10
2018-07-07T23:42:24.241Z,18.00
2018-07-07T23:47:17.525Z,17.90
2018-07-07T23:52:11.347Z,17.80
2018-07-07T23:57:04.833Z,17.70
